sensor_id;sensor_type;location;lat;lon;timestamp;temperature;humidity
9949;DHT22;5013;51.840;8.276;2022-08-20T00:00:05;22.20;1.00
9949;DHT22;5013;51.840;8.276;2022-08-20T00:02:38;22.20;1.00
9949;DHT22;5013;51.840;8.276;2022-08-20T00:05:04;22.20;1.00
9949;DHT22;5013;51.840;8.276;2022-08-20T00:07:30;22.20;1.00
9949;DHT22;5013;51.840;8.276;2022-08-20T00:09:55;22.20;1.00
9949;DHT22;5013;51.840;8.276;2022-08-20T00:12:21;22.20;1.00
9949;DHT22;5013;51.840;8.276;2022-08-20T00:14:47;22.20;1.00
9949;DHT22;5013;51.840;8.276;2022-08-20T00:17:13;22.10;99.90
9949;DHT22;5013;51.840;8.276;2022-08-20T00:19:39;22.00;1.00
9949;DHT22;5013;51.840;8.276;2022-08-20T00:22:04;22.00;99.90
9949;DHT22;5013;51.840;8.276;2022-08-20T00:24:30;22.00;99.90
9949;DHT22;5013;51.840;8.276;2022-08-20T00:26:57;22.10;99.90
9949;DHT22;5013;51.840;8.276;2022-08-20T00:29:22;22.10;99.90
9949;DHT22;5013;51.840;8.276;2022-08-20T00:31:49;22.00;99.90
9949;DHT22;5013;51.840;8.276;2022-08-20T00:34:14;21.90;99.90
9949;DHT22;5013;51.840;8.276;2022-08-20T00:36:40;21.80;99.90
9949;DHT22;5013;51.840;8.276;2022-08-20T00:39:06;21.90;99.90
9949;DHT22;5013;51.840;8.276;2022-08-20T00:41:31;21.90;99.90
9949;DHT22;5013;51.840;8.276;2022-08-20T00:44:09;21.80;99.90
9949;DHT22;5013;51.840;8.276;2022-08-20T00:46:36;21.90;87.80
9949;DHT22;5013;51.840;8.276;2022-08-20T00:49:04;21.80;99.90
9949;DHT22;5013;51.840;8.276;2022-08-20T00:51:45;21.80;99.90
9949;DHT22;5013;51.840;8.276;2022-08-20T00:54:18;21.70;1.00
9949;DHT22;5013;51.840;8.276;2022-08-20T00:56:49;21.60;1.00
9949;DHT22;5013;51.840;8.276;2022-08-20T00:59:18;21.70;1.00
9949;DHT22;5013;51.840;8.276;2022-08-20T01:01:44;21.60;1.00
9949;DHT22;5013;51.840;8.276;2022-08-20T01:04:10;21.60;8.80
9949;DHT22;5013;51.840;8.276;2022-08-20T01:06:39;21.60;99.90
9949;DHT22;5013;51.840;8.276;2022-08-20T01:09:06;21.60;99.90
9949;DHT22;5013;51.840;8.276;2022-08-20T01:11:33;21.60;1.00
9949;DHT22;5013;51.840;8.276;2022-08-20T01:14:01;21.50;1.00
9949;DHT22;5013;51.840;8.276;2022-08-20T01:16:39;21.40;99.90
9949;DHT22;5013;51.840;8.276;2022-08-20T01:19:07;21.40;99.90
9949;DHT22;5013;51.840;8.276;2022-08-20T01:21:36;21.40;99.90
9949;DHT22;5013;51.840;8.276;2022-08-20T01:24:25;21.40;1.00
9949;DHT22;5013;51.840;8.276;2022-08-20T01:26:53;21.30;8.40
9949;DHT22;5013;51.840;8.276;2022-08-20T01:29:24;21.30;99.90
9949;DHT22;5013;51.840;8.276;2022-08-20T01:31:50;21.30;99.90
9949;DHT22;5013;51.840;8.276;2022-08-20T01:34:18;21.30;1.00
9949;DHT22;5013;51.840;8.276;2022-08-20T01:36:51;21.30;1.00
9949;DHT22;5013;51.840;8.276;2022-08-20T01:39:20;21.30;1.00
9949;DHT22;5013;51.840;8.276;2022-08-20T01:44:37;21.30;99.90
9949;DHT22;5013;51.840;8.276;2022-08-20T01:47:14;21.30;99.90
9949;DHT22;5013;51.840;8.276;2022-08-20T01:49:43;21.30;99.90
9949;DHT22;5013;51.840;8.276;2022-08-20T01:52:14;21.20;1.00
9949;DHT22;5013;51.840;8.276;2022-08-20T01:54:44;21.30;99.90
9949;DHT22;5013;51.840;8.276;2022-08-20T01:57:16;21.30;1.00
9949;DHT22;5013;51.840;8.276;2022-08-20T01:59:43;21.30;1.00
9949;DHT22;5013;51.840;8.276;2022-08-20T02:02:10;21.30;1.00
9949;DHT22;5013;51.840;8.276;2022-08-20T02:04:38;21.30;1.00
9949;DHT22;5013;51.840;8.276;2022-08-20T02:07:05;21.30;95.60
9949;DHT22;5013;51.840;8.276;2022-08-20T02:09:35;21.30;99.90
9949;DHT22;5013;51.840;8.276;2022-08-20T02:12:03;21.40;1.00
9949;DHT22;5013;51.840;8.276;2022-08-20T02:14:31;21.40;1.00
9949;DHT22;5013;51.840;8.276;2022-08-20T02:16:58;21.30;11.30
9949;DHT22;5013;51.840;8.276;2022-08-20T02:21:57;21.30;1.00
9949;DHT22;5013;51.840;8.276;2022-08-20T02:24:23;21.30;1.00
9949;DHT22;5013;51.840;8.276;2022-08-20T02:26:50;21.20;1.00
9949;DHT22;5013;51.840;8.276;2022-08-20T02:29:16;21.20;1.00
9949;DHT22;5013;51.840;8.276;2022-08-20T02:31:43;21.10;1.00
9949;DHT22;5013;51.840;8.276;2022-08-20T02:34:10;21.00;99.90
9949;DHT22;5013;51.840;8.276;2022-08-20T02:36:41;21.00;1.00
9949;DHT22;5013;51.840;8.276;2022-08-20T02:39:10;20.90;1.00
9949;DHT22;5013;51.840;8.276;2022-08-20T02:41:37;20.80;1.00
9949;DHT22;5013;51.840;8.276;2022-08-20T02:44:04;20.70;53.10
9949;DHT22;5013;51.840;8.276;2022-08-20T02:46:31;20.70;99.90
9949;DHT22;5013;51.840;8.276;2022-08-20T02:48:57;20.70;99.90
9949;DHT22;5013;51.840;8.276;2022-08-20T02:51:23;20.60;99.90
9949;DHT22;5013;51.840;8.276;2022-08-20T02:53:49;20.70;99.90
9949;DHT22;5013;51.840;8.276;2022-08-20T02:56:15;20.60;99.90
9949;DHT22;5013;51.840;8.276;2022-08-20T02:58:41;20.50;99.90
9949;DHT22;5013;51.840;8.276;2022-08-20T03:01:09;20.50;99.90
9949;DHT22;5013;51.840;8.276;2022-08-20T03:03:37;20.60;99.90
9949;DHT22;5013;51.840;8.276;2022-08-20T03:06:03;20.50;99.90
9949;DHT22;5013;51.840;8.276;2022-08-20T03:08:30;20.50;99.90
9949;DHT22;5013;51.840;8.276;2022-08-20T03:10:56;20.50;99.90
9949;DHT22;5013;51.840;8.276;2022-08-20T03:13:22;20.40;99.90
9949;DHT22;5013;51.840;8.276;2022-08-20T03:15:50;20.40;99.90
9949;DHT22;5013;51.840;8.276;2022-08-20T03:18:17;20.40;99.90
9949;DHT22;5013;51.840;8.276;2022-08-20T03:20:44;20.40;99.90
9949;DHT22;5013;51.840;8.276;2022-08-20T03:23:10;20.40;99.90
9949;DHT22;5013;51.840;8.276;2022-08-20T03:25:36;20.40;99.90
9949;DHT22;5013;51.840;8.276;2022-08-20T03:28:02;20.40;99.90
9949;DHT22;5013;51.840;8.276;2022-08-20T03:30:29;20.40;99.90
9949;DHT22;5013;51.840;8.276;2022-08-20T03:32:55;20.30;99.90
9949;DHT22;5013;51.840;8.276;2022-08-20T03:35:23;20.30;99.90
9949;DHT22;5013;51.840;8.276;2022-08-20T03:37:49;20.30;99.90
9949;DHT22;5013;51.840;8.276;2022-08-20T03:40:19;20.30;99.90
9949;DHT22;5013;51.840;8.276;2022-08-20T03:42:45;20.40;99.90
9949;DHT22;5013;51.840;8.276;2022-08-20T03:45:11;20.40;99.90
9949;DHT22;5013;51.840;8.276;2022-08-20T03:47:39;20.40;99.90
9949;DHT22;5013;51.840;8.276;2022-08-20T03:50:08;20.50;99.90
9949;DHT22;5013;51.840;8.276;2022-08-20T03:52:35;20.50;99.90
9949;DHT22;5013;51.840;8.276;2022-08-20T03:55:00;20.50;99.90
9949;DHT22;5013;51.840;8.276;2022-08-20T03:57:26;20.40;99.90
9949;DHT22;5013;51.840;8.276;2022-08-20T03:59:53;20.40;99.90
9949;DHT22;5013;51.840;8.276;2022-08-20T04:02:19;20.40;99.90
9949;DHT22;5013;51.840;8.276;2022-08-20T04:04:45;20.40;99.90
9949;DHT22;5013;51.840;8.276;2022-08-20T04:07:19;20.30;99.90
9949;DHT22;5013;51.840;8.276;2022-08-20T04:09:50;20.30;99.90
9949;DHT22;5013;51.840;8.276;2022-08-20T04:12:17;20.40;99.90
9949;DHT22;5013;51.840;8.276;2022-08-20T04:14:42;20.30;99.90
9949;DHT22;5013;51.840;8.276;2022-08-20T04:17:10;20.20;99.90
9949;DHT22;5013;51.840;8.276;2022-08-20T04:19:37;20.30;99.90
9949;DHT22;5013;51.840;8.276;2022-08-20T04:22:04;20.30;99.90
9949;DHT22;5013;51.840;8.276;2022-08-20T04:24:30;20.30;99.90
9949;DHT22;5013;51.840;8.276;2022-08-20T04:26:56;20.40;99.90
9949;DHT22;5013;51.840;8.276;2022-08-20T04:29:23;20.40;99.90
9949;DHT22;5013;51.840;8.276;2022-08-20T04:31:50;20.40;99.90
9949;DHT22;5013;51.840;8.276;2022-08-20T04:34:16;20.50;99.90
9949;DHT22;5013;51.840;8.276;2022-08-20T04:36:44;20.50;99.90
9949;DHT22;5013;51.840;8.276;2022-08-20T04:39:12;20.60;99.90
9949;DHT22;5013;51.840;8.276;2022-08-20T04:41:38;20.60;99.90
9949;DHT22;5013;51.840;8.276;2022-08-20T04:44:04;20.50;99.90
9949;DHT22;5013;51.840;8.276;2022-08-20T04:46:30;20.60;99.90
9949;DHT22;5013;51.840;8.276;2022-08-20T04:48:57;20.60;99.90
9949;DHT22;5013;51.840;8.276;2022-08-20T04:51:23;20.50;99.90
9949;DHT22;5013;51.840;8.276;2022-08-20T04:53:49;20.50;99.90
9949;DHT22;5013;51.840;8.276;2022-08-20T04:56:15;20.50;99.90
9949;DHT22;5013;51.840;8.276;2022-08-20T04:58:43;20.60;99.90
9949;DHT22;5013;51.840;8.276;2022-08-20T05:01:13;20.60;99.90
9949;DHT22;5013;51.840;8.276;2022-08-20T05:03:40;20.60;99.90
9949;DHT22;5013;51.840;8.276;2022-08-20T05:06:08;20.60;99.90
9949;DHT22;5013;51.840;8.276;2022-08-20T05:08:35;20.60;99.90
9949;DHT22;5013;51.840;8.276;2022-08-20T05:11:01;20.60;99.90
9949;DHT22;5013;51.840;8.276;2022-08-20T05:13:27;20.60;99.90
9949;DHT22;5013;51.840;8.276;2022-08-20T05:15:54;20.60;99.90
9949;DHT22;5013;51.840;8.276;2022-08-20T05:18:23;20.60;99.90
9949;DHT22;5013;51.840;8.276;2022-08-20T05:20:49;20.60;99.90
9949;DHT22;5013;51.840;8.276;2022-08-20T05:23:17;20.60;99.90
9949;DHT22;5013;51.840;8.276;2022-08-20T05:25:45;20.60;99.90
9949;DHT22;5013;51.840;8.276;2022-08-20T05:28:24;20.60;99.90
9949;DHT22;5013;51.840;8.276;2022-08-20T05:30:51;20.70;99.90
9949;DHT22;5013;51.840;8.276;2022-08-20T05:33:19;20.60;99.90
9949;DHT22;5013;51.840;8.276;2022-08-20T05:35:46;20.70;99.90
9949;DHT22;5013;51.840;8.276;2022-08-20T05:38:14;20.60;99.90
9949;DHT22;5013;51.840;8.276;2022-08-20T05:40:43;20.80;99.90
9949;DHT22;5013;51.840;8.276;2022-08-20T05:43:09;20.70;99.90
9949;DHT22;5013;51.840;8.276;2022-08-20T05:45:37;20.70;99.90
9949;DHT22;5013;51.840;8.276;2022-08-20T05:48:29;20.70;99.90
9949;DHT22;5013;51.840;8.276;2022-08-20T05:50:55;20.80;99.90
9949;DHT22;5013;51.840;8.276;2022-08-20T05:53:22;20.80;99.90
9949;DHT22;5013;51.840;8.276;2022-08-20T05:55:48;20.70;99.90
9949;DHT22;5013;51.840;8.276;2022-08-20T05:58:26;20.70;99.90
9949;DHT22;5013;51.840;8.276;2022-08-20T06:00:58;20.60;99.90
9949;DHT22;5013;51.840;8.276;2022-08-20T06:03:24;20.60;99.90
9949;DHT22;5013;51.840;8.276;2022-08-20T06:06:09;20.60;99.90
9949;DHT22;5013;51.840;8.276;2022-08-20T06:08:36;20.50;99.90
9949;DHT22;5013;51.840;8.276;2022-08-20T06:11:01;20.50;99.90
9949;DHT22;5013;51.840;8.276;2022-08-20T06:13:27;20.50;99.90
9949;DHT22;5013;51.840;8.276;2022-08-20T06:15:54;20.60;99.90
9949;DHT22;5013;51.840;8.276;2022-08-20T06:18:20;20.70;99.90
9949;DHT22;5013;51.840;8.276;2022-08-20T06:20:46;20.60;99.90
9949;DHT22;5013;51.840;8.276;2022-08-20T06:23:12;20.60;99.90
9949;DHT22;5013;51.840;8.276;2022-08-20T06:25:38;20.70;99.90
9949;DHT22;5013;51.840;8.276;2022-08-20T06:28:04;20.80;99.90
9949;DHT22;5013;51.840;8.276;2022-08-20T06:30:30;20.80;99.90
9949;DHT22;5013;51.840;8.276;2022-08-20T06:32:57;20.90;99.90
9949;DHT22;5013;51.840;8.276;2022-08-20T06:35:23;21.00;99.90
9949;DHT22;5013;51.840;8.276;2022-08-20T06:37:48;21.10;99.90
9949;DHT22;5013;51.840;8.276;2022-08-20T06:40:20;21.20;99.90
9949;DHT22;5013;51.840;8.276;2022-08-20T06:42:48;21.10;99.90
9949;DHT22;5013;51.840;8.276;2022-08-20T06:45:19;21.20;99.90
9949;DHT22;5013;51.840;8.276;2022-08-20T06:47:48;21.50;99.90
9949;DHT22;5013;51.840;8.276;2022-08-20T06:50:17;21.60;99.90
9949;DHT22;5013;51.840;8.276;2022-08-20T06:52:44;22.00;99.90
9949;DHT22;5013;51.840;8.276;2022-08-20T06:55:12;22.50;22.60
9949;DHT22;5013;51.840;8.276;2022-08-20T06:57:38;22.20;1.00
9949;DHT22;5013;51.840;8.276;2022-08-20T07:00:16;22.40;1.00
9949;DHT22;5013;51.840;8.276;2022-08-20T07:02:43;22.30;1.00
9949;DHT22;5013;51.840;8.276;2022-08-20T07:05:09;22.10;1.00
9949;DHT22;5013;51.840;8.276;2022-08-20T07:07:35;22.20;1.00
9949;DHT22;5013;51.840;8.276;2022-08-20T07:10:11;21.90;1.00
9949;DHT22;5013;51.840;8.276;2022-08-20T07:12:37;21.70;1.00
9949;DHT22;5013;51.840;8.276;2022-08-20T07:15:05;21.70;1.00
9949;DHT22;5013;51.840;8.276;2022-08-20T07:17:31;21.70;1.00
9949;DHT22;5013;51.840;8.276;2022-08-20T07:19:57;21.70;1.00
9949;DHT22;5013;51.840;8.276;2022-08-20T07:22:23;21.80;1.00
9949;DHT22;5013;51.840;8.276;2022-08-20T07:24:50;21.90;1.00
9949;DHT22;5013;51.840;8.276;2022-08-20T07:27:21;22.00;99.90
9949;DHT22;5013;51.840;8.276;2022-08-20T07:29:47;22.10;99.90
9949;DHT22;5013;51.840;8.276;2022-08-20T07:32:31;22.10;1.00
9949;DHT22;5013;51.840;8.276;2022-08-20T07:35:03;22.30;99.90
9949;DHT22;5013;51.840;8.276;2022-08-20T07:37:29;22.80;99.90
9949;DHT22;5013;51.840;8.276;2022-08-20T07:39:55;22.90;1.00
9949;DHT22;5013;51.840;8.276;2022-08-20T07:42:21;22.80;99.90
9949;DHT22;5013;51.840;8.276;2022-08-20T07:44:47;23.10;1.00
9949;DHT22;5013;51.840;8.276;2022-08-20T07:47:17;23.50;99.90
9949;DHT22;5013;51.840;8.276;2022-08-20T07:49:43;23.70;1.00
9949;DHT22;5013;51.840;8.276;2022-08-20T07:52:08;24.00;99.90
9949;DHT22;5013;51.840;8.276;2022-08-20T07:54:34;24.10;1.00
9949;DHT22;5013;51.840;8.276;2022-08-20T07:57:03;23.70;99.90
9949;DHT22;5013;51.840;8.276;2022-08-20T07:59:29;23.30;1.00
9949;DHT22;5013;51.840;8.276;2022-08-20T08:01:56;23.40;99.90
9949;DHT22;5013;51.840;8.276;2022-08-20T08:04:22;23.80;99.90
9949;DHT22;5013;51.840;8.276;2022-08-20T08:06:49;23.80;38.20
9949;DHT22;5013;51.840;8.276;2022-08-20T08:09:15;23.60;99.90
9949;DHT22;5013;51.840;8.276;2022-08-20T08:11:47;23.30;99.90
9949;DHT22;5013;51.840;8.276;2022-08-20T08:14:16;22.80;1.00
9949;DHT22;5013;51.840;8.276;2022-08-20T08:16:44;22.80;62.80
9949;DHT22;5013;51.840;8.276;2022-08-20T08:19:10;23.10;1.00
9949;DHT22;5013;51.840;8.276;2022-08-20T08:21:39;23.40;99.90
9949;DHT22;5013;51.840;8.276;2022-08-20T08:24:05;23.40;1.00
9949;DHT22;5013;51.840;8.276;2022-08-20T08:26:31;23.60;99.90
9949;DHT22;5013;51.840;8.276;2022-08-20T08:28:57;23.80;1.00
9949;DHT22;5013;51.840;8.276;2022-08-20T08:31:22;24.30;1.00
9949;DHT22;5013;51.840;8.276;2022-08-20T08:33:50;24.70;1.00
9949;DHT22;5013;51.840;8.276;2022-08-20T08:36:16;24.90;1.00
9949;DHT22;5013;51.840;8.276;2022-08-20T08:38:43;25.00;99.90
9949;DHT22;5013;51.840;8.276;2022-08-20T08:41:15;24.60;99.90
9949;DHT22;5013;51.840;8.276;2022-08-20T08:43:43;24.10;99.90
9949;DHT22;5013;51.840;8.276;2022-08-20T08:46:12;24.10;1.00
9949;DHT22;5013;51.840;8.276;2022-08-20T08:48:40;24.60;99.90
9949;DHT22;5013;51.840;8.276;2022-08-20T08:51:09;24.90;99.90
9949;DHT22;5013;51.840;8.276;2022-08-20T08:53:43;25.40;99.90
9949;DHT22;5013;51.840;8.276;2022-08-20T08:56:11;25.40;99.90
9949;DHT22;5013;51.840;8.276;2022-08-20T08:58:40;25.80;1.00
9949;DHT22;5013;51.840;8.276;2022-08-20T09:01:14;25.10;99.90
9949;DHT22;5013;51.840;8.276;2022-08-20T09:03:43;24.50;1.00
9949;DHT22;5013;51.840;8.276;2022-08-20T09:06:14;24.20;99.90
9949;DHT22;5013;51.840;8.276;2022-08-20T09:08:52;23.90;99.90
9949;DHT22;5013;51.840;8.276;2022-08-20T09:11:20;23.70;99.90
9949;DHT22;5013;51.840;8.276;2022-08-20T09:13:50;23.60;99.90
9949;DHT22;5013;51.840;8.276;2022-08-20T09:16:19;23.70;99.90
9949;DHT22;5013;51.840;8.276;2022-08-20T09:18:46;23.90;1.00
9949;DHT22;5013;51.840;8.276;2022-08-20T09:21:12;24.00;99.90
9949;DHT22;5013;51.840;8.276;2022-08-20T09:23:39;23.90;1.00
9949;DHT22;5013;51.840;8.276;2022-08-20T09:26:05;24.20;1.00
9949;DHT22;5013;51.840;8.276;2022-08-20T09:28:31;24.20;99.90
9949;DHT22;5013;51.840;8.276;2022-08-20T09:30:57;24.20;1.00
9949;DHT22;5013;51.840;8.276;2022-08-20T09:33:22;24.40;1.00
9949;DHT22;5013;51.840;8.276;2022-08-20T09:35:48;24.30;1.00
9949;DHT22;5013;51.840;8.276;2022-08-20T09:38:14;23.90;99.90
9949;DHT22;5013;51.840;8.276;2022-08-20T09:40:39;23.60;1.00
9949;DHT22;5013;51.840;8.276;2022-08-20T09:43:06;23.50;99.90
9949;DHT22;5013;51.840;8.276;2022-08-20T09:45:32;23.40;99.90
9949;DHT22;5013;51.840;8.276;2022-08-20T09:47:58;23.40;99.90
9949;DHT22;5013;51.840;8.276;2022-08-20T09:50:30;23.50;1.00
9949;DHT22;5013;51.840;8.276;2022-08-20T09:52:57;23.60;25.70
9949;DHT22;5013;51.840;8.276;2022-08-20T09:55:38;23.60;1.00
9949;DHT22;5013;51.840;8.276;2022-08-20T10:00:49;23.40;99.90
9949;DHT22;5013;51.840;8.276;2022-08-20T10:03:15;23.20;1.00
9949;DHT22;5013;51.840;8.276;2022-08-20T10:05:41;23.10;99.90
9949;DHT22;5013;51.840;8.276;2022-08-20T10:08:09;23.10;27.30
9949;DHT22;5013;51.840;8.276;2022-08-20T10:10:35;23.00;1.00
9949;DHT22;5013;51.840;8.276;2022-08-20T10:13:01;22.80;1.00
9949;DHT22;5013;51.840;8.276;2022-08-20T10:15:30;23.00;27.70
9949;DHT22;5013;51.840;8.276;2022-08-20T10:17:55;23.30;99.90
9949;DHT22;5013;51.840;8.276;2022-08-20T10:20:24;23.40;11.40
9949;DHT22;5013;51.840;8.276;2022-08-20T10:22:50;23.60;1.00
9949;DHT22;5013;51.840;8.276;2022-08-20T10:25:16;23.60;1.00
9949;DHT22;5013;51.840;8.276;2022-08-20T10:27:43;23.90;99.90
9949;DHT22;5013;51.840;8.276;2022-08-20T10:30:09;24.10;1.00
9949;DHT22;5013;51.840;8.276;2022-08-20T10:32:35;24.10;99.90
9949;DHT22;5013;51.840;8.276;2022-08-20T10:35:01;24.30;1.00
9949;DHT22;5013;51.840;8.276;2022-08-20T10:37:27;24.50;1.00
9949;DHT22;5013;51.840;8.276;2022-08-20T10:39:55;24.90;1.00
9949;DHT22;5013;51.840;8.276;2022-08-20T10:42:21;25.00;1.00
9949;DHT22;5013;51.840;8.276;2022-08-20T10:44:46;24.90;1.00
9949;DHT22;5013;51.840;8.276;2022-08-20T10:47:25;24.70;99.90
9949;DHT22;5013;51.840;8.276;2022-08-20T10:49:55;25.00;1.00
9949;DHT22;5013;51.840;8.276;2022-08-20T10:52:21;25.20;99.90
9949;DHT22;5013;51.840;8.276;2022-08-20T10:54:48;25.10;99.90
9949;DHT22;5013;51.840;8.276;2022-08-20T10:57:19;25.10;99.90
9949;DHT22;5013;51.840;8.276;2022-08-20T10:59:48;25.30;99.90
9949;DHT22;5013;51.840;8.276;2022-08-20T11:02:14;25.50;99.90
9949;DHT22;5013;51.840;8.276;2022-08-20T11:04:40;25.90;39.50
9949;DHT22;5013;51.840;8.276;2022-08-20T11:07:14;26.10;1.00
9949;DHT22;5013;51.840;8.276;2022-08-20T11:09:40;26.50;1.00
9949;DHT22;5013;51.840;8.276;2022-08-20T11:12:06;26.60;1.00
9949;DHT22;5013;51.840;8.276;2022-08-20T11:14:32;26.40;1.00
9949;DHT22;5013;51.840;8.276;2022-08-20T11:16:59;26.30;1.00
9949;DHT22;5013;51.840;8.276;2022-08-20T11:19:25;26.30;1.00
9949;DHT22;5013;51.840;8.276;2022-08-20T11:21:58;26.60;1.00
9949;DHT22;5013;51.840;8.276;2022-08-20T11:24:24;26.80;1.00
9949;DHT22;5013;51.840;8.276;2022-08-20T11:26:50;27.20;1.00
9949;DHT22;5013;51.840;8.276;2022-08-20T11:29:18;27.40;99.90
9949;DHT22;5013;51.840;8.276;2022-08-20T11:31:45;27.30;99.90
9949;DHT22;5013;51.840;8.276;2022-08-20T11:34:10;27.60;99.90
9949;DHT22;5013;51.840;8.276;2022-08-20T11:36:36;27.70;99.90
9949;DHT22;5013;51.840;8.276;2022-08-20T11:39:03;27.70;99.90
9949;DHT22;5013;51.840;8.276;2022-08-20T11:41:29;27.70;99.90
9949;DHT22;5013;51.840;8.276;2022-08-20T11:43:54;28.00;99.90
9949;DHT22;5013;51.840;8.276;2022-08-20T11:46:20;27.70;99.90
9949;DHT22;5013;51.840;8.276;2022-08-20T11:48:46;27.60;99.90
9949;DHT22;5013;51.840;8.276;2022-08-20T11:51:11;27.20;99.90
9949;DHT22;5013;51.840;8.276;2022-08-20T11:53:37;26.90;99.90
9949;DHT22;5013;51.840;8.276;2022-08-20T11:56:03;26.60;99.90
9949;DHT22;5013;51.840;8.276;2022-08-20T11:58:28;26.40;99.90
9949;DHT22;5013;51.840;8.276;2022-08-20T12:00:54;26.50;99.90
9949;DHT22;5013;51.840;8.276;2022-08-20T12:03:20;26.50;99.90
9949;DHT22;5013;51.840;8.276;2022-08-20T12:05:46;26.70;99.90
9949;DHT22;5013;51.840;8.276;2022-08-20T12:08:13;26.80;99.90
9949;DHT22;5013;51.840;8.276;2022-08-20T12:10:39;26.90;99.90
9949;DHT22;5013;51.840;8.276;2022-08-20T12:13:06;26.90;99.90
9949;DHT22;5013;51.840;8.276;2022-08-20T12:15:35;27.10;99.90
9949;DHT22;5013;51.840;8.276;2022-08-20T12:18:06;27.20;99.90
9949;DHT22;5013;51.840;8.276;2022-08-20T12:20:32;27.40;99.90
9949;DHT22;5013;51.840;8.276;2022-08-20T12:22:57;27.60;99.90
9949;DHT22;5013;51.840;8.276;2022-08-20T12:25:23;27.80;99.90
9949;DHT22;5013;51.840;8.276;2022-08-20T12:27:49;27.70;99.90
9949;DHT22;5013;51.840;8.276;2022-08-20T12:30:18;27.40;99.90
9949;DHT22;5013;51.840;8.276;2022-08-20T12:32:44;27.00;99.90
9949;DHT22;5013;51.840;8.276;2022-08-20T12:35:12;27.00;99.90
9949;DHT22;5013;51.840;8.276;2022-08-20T12:37:38;27.20;99.90
9949;DHT22;5013;51.840;8.276;2022-08-20T12:40:07;27.30;99.90
9949;DHT22;5013;51.840;8.276;2022-08-20T12:42:34;27.40;99.90
9949;DHT22;5013;51.840;8.276;2022-08-20T12:45:00;27.40;99.90
9949;DHT22;5013;51.840;8.276;2022-08-20T12:47:29;27.60;99.90
9949;DHT22;5013;51.840;8.276;2022-08-20T12:50:00;27.40;99.90
9949;DHT22;5013;51.840;8.276;2022-08-20T12:52:28;27.10;99.90
9949;DHT22;5013;51.840;8.276;2022-08-20T12:54:55;26.70;99.90
9949;DHT22;5013;51.840;8.276;2022-08-20T12:57:36;26.50;99.90
9949;DHT22;5013;51.840;8.276;2022-08-20T13:00:08;26.40;99.90
9949;DHT22;5013;51.840;8.276;2022-08-20T13:02:35;26.40;99.90
9949;DHT22;5013;51.840;8.276;2022-08-20T13:05:09;26.60;99.90
9949;DHT22;5013;51.840;8.276;2022-08-20T13:07:36;26.50;99.90
9949;DHT22;5013;51.840;8.276;2022-08-20T13:10:03;26.40;99.90
9949;DHT22;5013;51.840;8.276;2022-08-20T13:12:29;26.50;99.90
9949;DHT22;5013;51.840;8.276;2022-08-20T13:14:55;26.20;99.90
9949;DHT22;5013;51.840;8.276;2022-08-20T13:17:21;26.20;99.90
9949;DHT22;5013;51.840;8.276;2022-08-20T13:19:46;26.40;99.90
9949;DHT22;5013;51.840;8.276;2022-08-20T13:22:13;26.60;99.90
9949;DHT22;5013;51.840;8.276;2022-08-20T13:24:52;26.40;99.90
9949;DHT22;5013;51.840;8.276;2022-08-20T13:27:19;26.50;99.90
9949;DHT22;5013;51.840;8.276;2022-08-20T13:29:49;26.60;99.90
9949;DHT22;5013;51.840;8.276;2022-08-20T13:32:15;26.90;99.90
9949;DHT22;5013;51.840;8.276;2022-08-20T13:34:41;26.90;99.90
9949;DHT22;5013;51.840;8.276;2022-08-20T13:37:24;26.80;99.90
9949;DHT22;5013;51.840;8.276;2022-08-20T13:39:52;26.60;99.90
9949;DHT22;5013;51.840;8.276;2022-08-20T13:42:18;26.30;99.90
9949;DHT22;5013;51.840;8.276;2022-08-20T13:44:44;26.10;99.90
9949;DHT22;5013;51.840;8.276;2022-08-20T13:47:28;25.90;99.90
9949;DHT22;5013;51.840;8.276;2022-08-20T13:50:07;25.70;99.90
9949;DHT22;5013;51.840;8.276;2022-08-20T13:52:35;25.60;1.00
9949;DHT22;5013;51.840;8.276;2022-08-20T13:55:01;24.90;1.00
9949;DHT22;5013;51.840;8.276;2022-08-20T13:57:27;24.40;99.90
9949;DHT22;5013;51.840;8.276;2022-08-20T13:59:57;23.80;1.00
9949;DHT22;5013;51.840;8.276;2022-08-20T14:02:24;23.30;99.90
9949;DHT22;5013;51.840;8.276;2022-08-20T14:04:50;22.70;1.00
9949;DHT22;5013;51.840;8.276;2022-08-20T14:07:26;22.30;99.90
9949;DHT22;5013;51.840;8.276;2022-08-20T14:09:57;21.80;99.90
9949;DHT22;5013;51.840;8.276;2022-08-20T14:12:24;21.40;8.80
9949;DHT22;5013;51.840;8.276;2022-08-20T14:14:51;21.20;1.00
9949;DHT22;5013;51.840;8.276;2022-08-20T14:17:34;21.10;99.90
9949;DHT22;5013;51.840;8.276;2022-08-20T14:20:06;21.00;99.90
9949;DHT22;5013;51.840;8.276;2022-08-20T14:22:32;20.90;1.00
9949;DHT22;5013;51.840;8.276;2022-08-20T14:24:58;20.90;1.00
9949;DHT22;5013;51.840;8.276;2022-08-20T14:27:29;20.90;1.00
9949;DHT22;5013;51.840;8.276;2022-08-20T14:29:55;21.00;1.00
9949;DHT22;5013;51.840;8.276;2022-08-20T14:32:23;21.10;1.00
9949;DHT22;5013;51.840;8.276;2022-08-20T14:34:51;21.20;1.00
9949;DHT22;5013;51.840;8.276;2022-08-20T14:37:19;21.30;99.90
9949;DHT22;5013;51.840;8.276;2022-08-20T14:39:47;21.40;1.00
9949;DHT22;5013;51.840;8.276;2022-08-20T14:42:13;21.40;1.00
9949;DHT22;5013;51.840;8.276;2022-08-20T14:44:40;21.60;99.90
9949;DHT22;5013;51.840;8.276;2022-08-20T14:47:30;21.80;1.00
9949;DHT22;5013;51.840;8.276;2022-08-20T14:49:59;22.00;96.90
9949;DHT22;5013;51.840;8.276;2022-08-20T14:52:29;22.10;99.90
9949;DHT22;5013;51.840;8.276;2022-08-20T14:54:55;22.50;41.40
9949;DHT22;5013;51.840;8.276;2022-08-20T14:57:21;22.80;1.00
9949;DHT22;5013;51.840;8.276;2022-08-20T14:59:47;23.20;1.00
9949;DHT22;5013;51.840;8.276;2022-08-20T15:02:15;23.50;22.20
9949;DHT22;5013;51.840;8.276;2022-08-20T15:04:41;23.90;1.00
9949;DHT22;5013;51.840;8.276;2022-08-20T15:07:30;24.40;99.90
9949;DHT22;5013;51.840;8.276;2022-08-20T15:09:58;24.80;1.00
9949;DHT22;5013;51.840;8.276;2022-08-20T15:12:26;25.10;99.90
9949;DHT22;5013;51.840;8.276;2022-08-20T15:14:51;25.30;99.90
9949;DHT22;5013;51.840;8.276;2022-08-20T15:17:22;25.00;1.00
9949;DHT22;5013;51.840;8.276;2022-08-20T15:19:48;25.00;3.90
9949;DHT22;5013;51.840;8.276;2022-08-20T15:22:15;24.90;1.00
9949;DHT22;5013;51.840;8.276;2022-08-20T15:24:40;24.50;81.80
9949;DHT22;5013;51.840;8.276;2022-08-20T15:27:11;24.50;1.00
9949;DHT22;5013;51.840;8.276;2022-08-20T15:29:38;24.40;99.90
9949;DHT22;5013;51.840;8.276;2022-08-20T15:32:05;24.40;99.90
9949;DHT22;5013;51.840;8.276;2022-08-20T15:34:33;24.40;1.00
9949;DHT22;5013;51.840;8.276;2022-08-20T15:37:12;24.40;1.00
9949;DHT22;5013;51.840;8.276;2022-08-20T15:39:38;24.30;99.90
9949;DHT22;5013;51.840;8.276;2022-08-20T15:42:05;24.40;1.00
9949;DHT22;5013;51.840;8.276;2022-08-20T15:44:32;24.50;1.00
9949;DHT22;5013;51.840;8.276;2022-08-20T15:49:44;24.50;1.00
9949;DHT22;5013;51.840;8.276;2022-08-20T15:52:10;24.40;1.00
9949;DHT22;5013;51.840;8.276;2022-08-20T15:54:36;24.40;1.00
9949;DHT22;5013;51.840;8.276;2022-08-20T15:57:10;24.30;99.90
9949;DHT22;5013;51.840;8.276;2022-08-20T16:06:02;24.30;1.00
9949;DHT22;5013;51.840;8.276;2022-08-20T16:14:02;24.10;1.00
9949;DHT22;5013;51.840;8.276;2022-08-20T16:16:49;24.10;1.00
9949;DHT22;5013;51.840;8.276;2022-08-20T16:19:34;24.00;1.00
9949;DHT22;5013;51.840;8.276;2022-08-20T16:22:02;23.90;1.00
9949;DHT22;5013;51.840;8.276;2022-08-20T16:24:35;24.00;1.00
9949;DHT22;5013;51.840;8.276;2022-08-20T16:27:35;24.00;1.00
9949;DHT22;5013;51.840;8.276;2022-08-20T16:30:08;24.10;1.00
9949;DHT22;5013;51.840;8.276;2022-08-20T16:32:42;24.00;1.00
9949;DHT22;5013;51.840;8.276;2022-08-20T16:35:30;23.90;1.00